Time;durP1;ratioP1;P1;durP2;ratioP2;P2;SDS_P1;SDS_P2;PMS_P1;PMS_P2;Temp;Humidity;BMP_temperature;BMP_pressure;BME280_temperature;BME280_humidity;BME280_pressure;Samples;Min_cycle;Max_cycle;Signal;HPM_P1;HPM_P2
2022/01/21 00:01:06;;;;;;;100.95;18.15;;;;;;;-13.93;66.63;100029.28;5061194;28;20487;-82
2022/01/21 00:03:32;;;;;;;83.80;17.00;;;;;;;-14.01;66.46;100034.19;5061245;28;20036;-82
2022/01/21 00:05:58;;;;;;;97.55;19.98;;;;;;;-14.29;65.62;100041.91;5094200;28;20051;-82
2022/01/21 00:08:25;;;;;;;77.82;16.45;;;;;;;-14.50;65.96;100048.16;5128394;27;20142;-81
2022/01/21 00:10:51;;;;;;;77.50;15.50;;;;;;;-14.61;65.86;100046.94;5094564;28;20463;-81
2022/01/21 00:13:34;;;;;;;71.10;15.13;;;;;;;-14.63;66.11;100034.88;5077117;28;20040;-82
2022/01/21 00:16:21;;;;;;;58.58;14.02;;;;;;;-14.67;66.19;100041.59;5094258;28;20100;-82
2022/01/21 00:18:55;;;;;;;85.72;14.13;;;;;;;-14.68;66.04;100037.31;5093948;28;20066;-81
2022/01/21 00:32:20;;;;;;;52.05;13.88;;;;;;;-14.83;65.89;100047.09;5079894;28;20044;-80
2022/01/21 00:34:46;;;;;;;34.35;11.63;;;;;;;-14.85;65.94;100041.00;5093674;28;20129;-81
2022/01/21 00:37:12;;;;;;;73.47;14.45;;;;;;;-14.89;65.87;100031.47;5077337;28;20154;-81
2022/01/21 00:39:39;;;;;;;41.63;15.50;;;;;;;-14.97;66.26;100039.81;5062346;28;20411;-81
2022/01/21 00:44:32;;;;;;;70.82;15.32;;;;;;;-14.95;66.59;100040.72;5076547;28;20085;-81
2022/01/21 00:46:58;;;;;;;142.88;16.13;;;;;;;-14.94;66.93;100037.34;5062536;28;20093;-80
2022/01/21 00:49:24;;;;;;;113.80;15.50;;;;;;;-14.98;66.98;100029.50;5066843;28;20048;-80
2022/01/21 00:51:51;;;;;;;117.82;15.63;;;;;;;-15.05;67.08;100030.97;5068249;28;20044;-81
2022/01/21 00:54:16;;;;;;;168.90;16.30;;;;;;;-15.05;66.91;100032.69;5051093;28;20069;-82
2022/01/21 00:56:43;;;;;;;236.80;21.10;;;;;;;-15.10;67.14;100027.41;5068232;28;20044;-82
2022/01/21 00:59:09;;;;;;;109.25;17.58;;;;;;;-15.18;67.14;100023.72;5070213;28;20067;-81
2022/01/21 01:01:35;;;;;;;116.55;15.63;;;;;;;-15.22;68.01;100025.31;5062333;28;20044;-81
2022/01/21 01:04:01;;;;;;;142.15;15.52;;;;;;;-15.21;67.61;100033.88;5044175;28;20054;-80
2022/01/21 01:06:27;;;;;;;222.43;17.35;;;;;;;-15.23;67.95;100030.34;5076862;28;20078;-79
2022/01/21 01:08:54;;;;;;;84.13;17.95;;;;;;;-15.28;68.25;100021.66;5076531;28;20071;-80
2022/01/21 01:11:50;;;;;;;162.98;18.88;;;;;;;-15.35;68.08;100015.44;5093115;28;20043;-80
2022/01/21 01:20:04;;;;;;;227.00;20.25;;;;;;;-15.32;68.35;100020.69;5078910;28;20139;-81
2022/01/21 01:22:57;;;;;;;186.02;21.23;;;;;;;-15.43;67.83;100006.63;5078710;28;20070;-80
2022/01/21 01:28:07;;;;;;;117.00;12.80;;;;;;;-15.46;68.25;100017.63;5078048;28;20177;-81
2022/01/21 01:30:33;;;;;;;164.50;18.38;;;;;;;-15.46;68.23;100022.75;5075639;28;20084;-82
2022/01/21 01:33:03;;;;;;;228.45;20.08;;;;;;;-15.47;68.08;100021.03;5076065;28;20131;-81
2022/01/21 01:35:31;;;;;;;237.90;21.48;;;;;;;-15.48;68.79;100016.72;5075752;28;20047;-81
2022/01/21 01:38:27;;;;;;;170.60;21.52;;;;;;;-15.50;68.90;100015.78;5076339;28;20483;-79
2022/01/21 01:40:59;;;;;;;109.47;17.60;;;;;;;-15.47;68.47;100015.03;5093340;28;20047;-81
2022/01/21 01:51:24;;;;;;;196.77;23.13;;;;;;;-15.68;69.08;100026.31;5080083;28;20040;-80
2022/01/21 01:53:56;;;;;;;290.67;30.48;;;;;;;-15.63;69.00;100031.56;5062486;28;20055;-80
2022/01/21 01:56:35;;;;;;;290.10;26.08;;;;;;;-15.57;69.00;100034.31;5060325;28;20055;-81
2022/01/21 01:59:01;;;;;;;278.08;28.52;;;;;;;-15.58;69.50;100014.66;5064021;28;20050;-81
2022/01/21 02:01:27;;;;;;;226.98;32.30;;;;;;;-15.58;69.31;100024.91;5085480;28;20116;-81
2022/01/21 02:03:53;;;;;;;301.90;35.60;;;;;;;-15.67;69.33;100016.94;5052193;28;20052;-80
2022/01/21 02:06:20;;;;;;;511.10;42.83;;;;;;;-15.73;69.66;100011.59;5058852;28;20040;-80
2022/01/21 02:08:46;;;;;;;377.63;42.97;;;;;;;-15.67;70.24;100009.25;5042131;28;20054;-80
2022/01/21 02:11:12;;;;;;;392.73;40.15;;;;;;;-15.66;69.95;100013.56;5075150;28;20039;-81
2022/01/21 02:13:43;;;;;;;570.70;55.50;;;;;;;-15.59;69.91;100019.75;5091612;28;20392;-80
2022/01/21 02:16:36;;;;;;;372.98;45.05;;;;;;;-15.66;69.91;100031.47;5092108;28;20044;-84
2022/01/21 02:21:48;;;;;;;516.58;46.08;;;;;;;-15.58;70.40;100029.16;5061086;28;20040;-84
2022/01/21 02:24:24;;;;;;;442.05;49.15;;;;;;;-15.59;70.19;100024.88;5058510;28;20101;-83
2022/01/21 02:26:51;;;;;;;466.80;47.95;;;;;;;-15.59;70.36;100040.25;5059983;28;20584;-86
2022/01/21 02:29:27;;;;;;;;;;;;;;;-15.53;70.68;100031.09;5076622;28;20044;-85
2022/01/21 02:31:57;;;;;;;152.05;33.00;;;;;;;-15.58;70.63;100017.22;5109084;28;19920;-86
2022/01/21 02:34:23;;;;;;;151.18;37.65;;;;;;;-15.50;70.37;100033.72;5076371;28;20164;-88
2022/01/21 02:36:49;;;;;;;104.68;31.95;;;;;;;-15.68;69.80;100021.19;5041710;28;20044;-87
2022/01/21 02:39:15;;;;;;;86.05;31.48;;;;;;;-15.76;68.97;100027.72;5041731;28;20040;-86
2022/01/21 02:41:42;;;;;;;87.85;26.65;;;;;;;-15.75;69.10;100037.16;5075998;28;20071;-87
2022/01/21 02:44:13;;;;;;;60.47;19.80;;;;;;;-15.76;68.61;100042.22;5075786;28;20462;-83
2022/01/21 02:46:42;;;;;;;45.15;16.95;;;;;;;-15.83;67.90;100040.25;5059363;28;20117;-84
2022/01/21 02:49:09;;;;;;;34.45;13.48;;;;;;;-15.93;67.47;100039.94;5077286;28;20050;-84
2022/01/21 02:51:35;;;;;;;44.90;16.95;;;;;;;-16.00;67.26;100037.94;5062358;28;20139;-83
2022/01/21 02:54:04;;;;;;;42.33;18.10;;;;;;;-16.06;66.78;100037.72;5078646;28;20487;-84
2022/01/21 02:56:39;;;;;;;38.10;14.35;;;;;;;-16.07;66.73;100041.09;5063093;28;20480;-85
2022/01/21 02:59:07;;;;;;;32.75;12.05;;;;;;;-16.11;66.53;100028.13;5078555;28;20044;-83
2022/01/21 03:01:35;;;;;;;53.75;14.48;;;;;;;-16.04;66.91;100040.34;5078592;28;20391;-85
2022/01/21 03:04:05;;;;;;;65.20;19.02;;;;;;;-16.07;66.67;100030.00;5062559;28;20036;-83
2022/01/21 03:06:31;;;;;;;70.07;24.25;;;;;;;-16.05;66.35;100029.25;5062554;28;20054;-84
2022/01/21 03:08:58;;;;;;;109.05;26.02;;;;;;;-16.13;66.11;100027.19;5061378;28;20131;-83
2022/01/21 03:11:24;;;;;;;90.45;26.55;;;;;;;-16.14;66.47;100023.75;5061952;28;20040;-83
2022/01/21 03:13:51;;;;;;;117.93;28.65;;;;;;;-16.10;65.96;100033.28;5095320;28;20043;-82
2022/01/21 03:16:17;;;;;;;130.18;30.98;;;;;;;-16.10;66.23;100043.53;5062143;28;20079;-82
2022/01/21 03:18:43;;;;;;;175.50;36.20;;;;;;;-16.11;66.05;100038.38;5062072;28;20519;-84
2022/01/21 03:21:15;;;;;;;143.98;35.03;;;;;;;-16.11;65.96;100039.25;5082730;28;20088;-84
2022/01/21 03:23:46;;;;;;;121.32;31.52;;;;;;;-16.22;66.15;100036.28;5095026;28;20051;-84
2022/01/21 03:26:17;;;;;;;184.85;44.60;;;;;;;-16.21;66.05;100043.16;5045501;28;20040;-82
2022/01/21 03:28:51;;;;;;;187.32;51.97;;;;;;;-16.18;66.17;100044.94;5079651;28;20044;-82
2022/01/21 03:31:18;;;;;;;170.27;49.53;;;;;;;-16.22;66.53;100041.41;5094998;28;20155;-85
2022/01/21 03:33:44;;;;;;;202.50;55.40;;;;;;;-16.19;66.36;100040.66;5078173;28;20051;-84
2022/01/21 03:36:10;;;;;;;170.88;50.47;;;;;;;-16.20;66.55;100044.03;5061659;28;20043;-83
2022/01/21 03:38:36;;;;;;;163.48;49.35;;;;;;;-16.25;66.42;100038.72;5094801;28;20071;-85
2022/01/21 03:41:03;;;;;;;147.02;47.20;;;;;;;-16.20;66.43;100044.91;5061471;28;20052;-84
2022/01/21 03:43:29;;;;;;;118.53;39.55;;;;;;;-16.25;66.27;100037.84;5060847;28;20079;-81
2022/01/21 03:45:55;;;;;;;123.78;38.92;;;;;;;-16.23;66.36;100043.91;5076783;28;20044;-78
2022/01/21 03:48:22;;;;;;;55.95;16.80;;;;;;;-16.28;66.35;100061.66;5061079;28;20036;-82
2022/01/21 03:50:50;;;;;;;51.20;18.80;;;;;;;-16.32;66.00;100044.44;5060625;28;20506;-83
2022/01/21 03:53:16;;;;;;;41.22;14.75;;;;;;;-16.34;65.93;100055.44;5044238;28;20036;-83
2022/01/21 03:55:43;;;;;;;43.13;17.35;;;;;;;-16.45;65.30;100058.44;5060821;28;20047;-82
2022/01/21 03:58:10;;;;;;;50.00;19.08;;;;;;;-16.55;64.75;100071.66;5060964;28;20040;-79
2022/01/21 04:00:54;;;;;;;57.25;16.42;;;;;;;-16.72;65.13;100054.81;5078088;28;20519;-84
2022/01/21 04:03:21;;;;;;;57.85;16.08;;;;;;;-16.67;65.14;100066.94;5044747;28;20048;-82
2022/01/21 04:05:48;;;;;;;39.50;13.82;;;;;;;-16.77;65.09;100071.66;5060987;28;20048;-83
2022/01/21 04:08:15;;;;;;;31.73;12.27;;;;;;;-16.85;65.29;100070.47;5077306;28;20503;-81
2022/01/21 04:10:48;;;;;;;34.92;14.52;;;;;;;-16.86;65.23;100063.63;5061640;28;20133;-81
2022/01/21 04:13:16;;;;;;;36.50;11.93;;;;;;;-16.93;64.91;100068.47;5094231;28;20526;-81
2022/01/21 04:15:51;;;;;;;31.33;10.95;;;;;;;-16.95;65.42;100065.00;5060742;28;20143;-83
2022/01/21 04:18:18;;;;;;;22.58;8.57;;;;;;;-16.96;65.47;100053.03;5078230;27;20491;-83
2022/01/21 04:20:48;;;;;;;37.40;10.15;;;;;;;-16.84;65.45;100067.13;5061850;28;20414;-90
2022/01/21 04:23:15;;;;;;;55.70;13.00;;;;;;;-16.82;65.93;100073.16;5060408;28;20059;-82
2022/01/21 04:25:41;;;;;;;45.10;13.68;;;;;;;-16.79;66.80;100065.63;5093921;28;20055;-79
2022/01/21 04:28:07;;;;;;;65.03;15.52;;;;;;;-16.83;66.67;100067.19;5044645;28;20042;-83
2022/01/21 04:30:34;;;;;;;42.47;15.07;;;;;;;-16.75;66.50;100072.63;5060472;28;20100;-82
2022/01/21 04:33:01;;;;;;;37.05;15.40;;;;;;;-16.68;66.04;100069.47;5093562;28;20488;-89
2022/01/21 04:35:28;;;;;;;40.50;13.98;;;;;;;-16.55;66.22;100066.56;5060585;28;20066;-79
2022/01/21 04:37:58;;;;;;;88.15;17.17;;;;;;;-16.50;65.51;100059.94;5094350;28;20059;-81
2022/01/21 04:40:29;;;;;;;51.88;16.27;;;;;;;-16.54;65.51;100067.47;5094344;28;20051;-81
2022/01/21 04:48:31;;;;;;;63.67;17.55;;;;;;;-16.35;64.82;100063.94;5061771;28;20403;-77
2022/01/21 04:51:00;;;;;;;47.90;16.90;;;;;;;-16.29;64.91;100069.25;5092935;28;20048;-78
2022/01/21 04:53:30;;;;;;;61.08;17.30;;;;;;;-16.32;65.02;100074.25;5092265;28;20067;-77
2022/01/21 04:56:09;;;;;;;57.58;18.50;;;;;;;-16.25;65.12;100056.63;5062996;28;20121;-81
2022/01/21 04:58:35;;;;;;;48.45;17.83;;;;;;;-16.07;64.98;100061.59;5042981;28;20040;-79
2022/01/21 05:01:04;;;;;;;64.85;18.75;;;;;;;-15.81;65.27;100071.94;5060606;28;20036;-84
2022/01/21 05:03:31;;;;;;;54.00;17.20;;;;;;;-15.66;65.09;100081.84;5061214;28;20376;-77
2022/01/21 05:05:57;;;;;;;54.78;18.15;;;;;;;-15.70;64.42;100083.44;5075835;28;20538;-82
2022/01/21 05:08:29;;;;;;;75.95;20.73;;;;;;;-15.62;64.45;100076.84;5075705;28;20113;-83
2022/01/21 05:10:55;;;;;;;61.70;18.85;;;;;;;-15.64;64.39;100077.63;5058467;28;20040;-82
2022/01/21 05:13:25;;;;;;;57.60;18.75;;;;;;;-15.47;64.68;100077.41;5058960;28;20050;-81
2022/01/21 05:16:00;;;;;;;64.30;20.50;;;;;;;-15.46;64.40;100068.88;5076072;28;20044;-83
2022/01/21 05:18:28;;;;;;;65.80;19.98;;;;;;;-15.21;64.14;100074.88;5094089;28;20040;-79
2022/01/21 05:21:21;;;;;;;65.93;20.13;;;;;;;-15.11;64.39;100081.22;5089959;28;20058;-82
2022/01/21 05:24:09;;;;;;;82.60;23.67;;;;;;;-14.95;64.17;100080.91;5078725;28;20040;-81
2022/01/21 05:26:38;;;;;;;63.75;20.08;;;;;;;-14.82;63.55;100084.72;5058973;28;20040;-82
2022/01/21 05:29:06;;;;;;;64.63;17.80;;;;;;;-14.66;63.74;100091.28;5075741;28;20105;-81
2022/01/21 05:31:47;;;;;;;60.55;18.70;;;;;;;-14.45;63.72;100099.59;5096961;28;20060;-85
2022/01/21 05:34:40;;;;;;;45.22;17.30;;;;;;;-14.35;63.42;100098.22;5077025;28;20097;-81
2022/01/21 05:37:29;;;;;;;50.95;21.73;;;;;;;-14.31;63.08;100089.78;5077753;28;20141;-83
2022/01/21 05:40:18;;;;;;;75.50;24.88;;;;;;;-14.41;62.31;100101.44;5084369;28;20044;-81
2022/01/21 05:43:10;;;;;;;82.78;26.02;;;;;;;-14.35;62.90;100096.50;5090331;28;20048;-81
2022/01/21 05:48:42;;;;;;;90.43;25.45;;;;;;;-14.24;62.55;100096.84;5071225;28;20054;-83
2022/01/21 05:51:28;;;;;;;81.93;26.65;;;;;;;-14.02;62.32;100088.97;5058085;28;20083;-81
2022/01/21 05:54:13;;;;;;;78.65;28.05;;;;;;;-13.71;62.95;100100.16;5072103;28;20131;-79
2022/01/21 05:57:07;;;;;;;104.50;26.67;;;;;;;-13.40;62.69;100090.75;5045268;28;20581;-84
2022/01/21 05:59:37;;;;;;;76.07;27.92;;;;;;;-13.11;61.94;100094.09;5039078;28;20048;-87
2022/01/21 06:02:05;;;;;;;71.72;28.40;;;;;;;-12.88;61.68;100084.38;5071419;28;20052;-82
2022/01/21 06:04:32;;;;;;;107.85;31.95;;;;;;;-12.81;61.10;100076.00;5088153;28;20086;-80
2022/01/21 06:07:00;;;;;;;94.40;29.92;;;;;;;-12.81;60.89;100078.56;5087520;28;20040;-79
2022/01/21 06:09:27;;;;;;;107.95;33.33;;;;;;;-12.76;60.84;100092.41;5038271;28;20044;-82
2022/01/21 06:11:53;;;;;;;85.25;32.60;;;;;;;-12.73;60.12;100092.50;5021641;28;20045;-78
2022/01/21 06:14:19;;;;;;;100.00;32.08;;;;;;;-12.59;60.49;100085.13;5054366;28;20095;-77
2022/01/21 06:16:46;;;;;;;80.20;30.95;;;;;;;-12.41;60.40;100094.97;5049492;28;20044;-78
2022/01/21 06:19:13;;;;;;;101.10;31.55;;;;;;;-12.21;60.02;100093.75;5082184;28;20055;-80
2022/01/21 06:21:39;;;;;;;85.88;31.33;;;;;;;-12.26;59.68;100095.34;5053864;28;20491;-83
2022/01/21 06:24:05;;;;;;;95.75;35.97;;;;;;;-12.20;59.66;100085.19;5038981;28;20056;-86
2022/01/21 06:26:31;;;;;;;80.32;30.35;;;;;;;-12.10;60.06;100087.16;5075786;28;20112;-83
2022/01/21 06:28:57;;;;;;;80.32;27.33;;;;;;;-11.94;60.13;100077.19;5076881;28;20498;-85
2022/01/21 06:31:23;;;;;;;72.40;26.08;;;;;;;-11.77;59.81;100081.84;5059264;28;20419;-84
2022/01/21 06:33:49;;;;;;;65.70;24.08;;;;;;;-11.57;59.62;100084.81;5077076;28;20041;-83
2022/01/21 06:36:15;;;;;;;61.38;25.73;;;;;;;-11.33;59.45;100083.56;5075582;28;20040;-85
2022/01/21 06:38:41;;;;;;;61.00;24.52;;;;;;;-11.22;58.74;100087.22;5076586;28;20503;-82
2022/01/21 06:41:07;;;;;;;65.00;27.30;;;;;;;-11.11;58.56;100090.00;5075747;28;20044;-83
2022/01/21 06:43:34;;;;;;;71.90;28.92;;;;;;;-10.99;58.62;100079.03;5058985;28;20047;-85
2022/01/21 06:46:00;;;;;;;63.75;26.17;;;;;;;-10.77;58.07;100096.66;5060125;28;20553;-83
2022/01/21 06:48:25;;;;;;;80.85;31.45;;;;;;;-10.75;57.39;100097.56;5082964;28;20060;-85
2022/01/21 06:50:52;;;;;;;86.50;32.47;;;;;;;-10.82;56.83;100088.84;5110037;28;20137;-84
2022/01/21 06:53:17;;;;;;;69.57;28.73;;;;;;;-10.70;56.93;100098.50;5042212;28;20068;-83
2022/01/21 06:55:43;;;;;;;74.57;27.70;;;;;;;-10.66;56.93;100095.13;5093264;28;20131;-86
2022/01/21 06:58:09;;;;;;;79.65;32.60;;;;;;;-10.75;57.10;100082.06;5062760;28;20478;-84
2022/01/21 07:00:36;;;;;;;96.95;37.50;;;;;;;-10.55;57.20;100088.44;5079592;28;20044;-83
2022/01/21 07:03:02;;;;;;;99.28;38.05;;;;;;;-10.43;57.07;100081.72;5095570;28;20051;-82
2022/01/21 07:05:31;;;;;;;141.55;51.70;;;;;;;-10.39;57.18;100091.28;5078478;28;20526;-86
2022/01/21 07:07:58;;;;;;;121.63;48.20;;;;;;;-10.31;57.23;100087.09;5095125;28;20061;-83
2022/01/21 07:10:25;;;;;;;125.38;49.58;;;;;;;-10.09;57.08;100091.72;5077963;28;20055;-85
2022/01/21 07:12:51;;;;;;;136.85;53.78;;;;;;;-9.97;56.74;100090.16;5077998;28;20089;-83
2022/01/21 07:15:19;;;;;;;136.63;57.42;;;;;;;-9.84;56.63;100094.66;5060292;28;20402;-85
2022/01/21 07:17:46;;;;;;;136.98;57.17;;;;;;;-9.71;57.02;100086.22;5096094;28;20060;-85
2022/01/21 07:20:12;;;;;;;163.52;60.03;;;;;;;-9.65;56.32;100088.03;5075116;28;20418;-82
2022/01/21 07:22:38;;;;;;;130.98;55.88;;;;;;;-9.50;56.57;100074.41;5077806;28;20047;-85
2022/01/21 07:25:05;;;;;;;146.40;54.55;;;;;;;-9.33;56.80;100078.06;5044323;28;20048;-81
2022/01/21 07:27:32;;;;;;;127.38;49.78;;;;;;;-9.23;56.72;100068.69;5077956;28;20476;-79
2022/01/21 07:29:58;;;;;;;138.43;54.63;;;;;;;-9.11;55.99;100074.84;5094601;28;20376;-83
2022/01/21 07:32:24;;;;;;;123.75;53.25;;;;;;;-9.09;55.65;100073.16;5044683;28;20051;-80
2022/01/21 07:34:51;;;;;;;158.77;58.00;;;;;;;-9.13;55.69;100071.41;5094066;28;20044;-76
2022/01/21 07:37:16;;;;;;;143.43;57.17;;;;;;;-8.89;55.94;100070.78;5077591;28;20040;-79
2022/01/21 07:39:42;;;;;;;146.15;55.70;;;;;;;-8.90;55.98;100070.78;5095520;28;20137;-81
2022/01/21 07:42:09;;;;;;;138.57;55.58;;;;;;;-8.71;56.16;100071.81;5094395;28;20447;-84
2022/01/21 07:44:36;;;;;;;103.30;41.55;;;;;;;-8.46;56.20;100071.19;5061457;28;20070;-77
2022/01/21 07:47:02;;;;;;;99.38;39.80;;;;;;;-8.34;55.44;100080.75;5077828;28;20387;-80
2022/01/21 07:49:28;;;;;;;105.40;40.38;;;;;;;-8.27;55.05;100074.75;5077658;28;20048;-82
2022/01/21 07:51:55;;;;;;;71.43;28.98;;;;;;;-8.39;54.44;100067.75;5078032;28;20452;-79
2022/01/21 07:54:21;;;;;;;74.28;32.03;;;;;;;-8.50;54.42;100059.00;5094234;28;20127;-79
2022/01/21 07:56:47;;;;;;;85.07;32.55;;;;;;;-8.43;54.45;100059.94;5095411;28;20075;-77
2022/01/21 07:59:13;;;;;;;71.82;29.45;;;;;;;-8.19;54.88;100062.72;5077583;28;20105;-83
2022/01/21 08:01:39;;;;;;;63.95;25.60;;;;;;;-8.13;54.10;100060.13;5059078;28;20083;-88
2022/01/21 08:04:06;;;;;;;62.53;27.88;;;;;;;-8.04;54.61;100048.09;5061996;28;20135;-83
2022/01/21 08:06:32;;;;;;;72.85;28.13;;;;;;;-7.83;54.34;100063.78;5044253;28;20050;-80
2022/01/21 08:08:59;;;;;;;58.78;25.98;;;;;;;-7.70;53.73;100056.94;5077336;28;20458;-78
2022/01/21 08:11:26;;;;;;;62.63;25.75;;;;;;;-7.67;53.52;100055.22;5090411;28;20057;-79
2022/01/21 08:13:52;;;;;;;54.85;24.63;;;;;;;-7.54;53.52;100050.94;5040732;28;20480;-78
2022/01/21 08:16:18;;;;;;;52.78;23.88;;;;;;;-7.50;53.42;100057.03;5057070;28;20040;-78
2022/01/21 08:18:44;;;;;;;63.15;25.77;;;;;;;-7.65;53.52;100060.44;5040830;28;20040;-78
2022/01/21 08:21:18;;;;;;;53.42;24.60;;;;;;;-7.65;53.96;100063.88;5057159;28;20063;-79
2022/01/21 08:23:53;;;;;;;75.80;26.05;;;;;;;-7.51;53.70;100055.31;5058109;28;20499;-79
2022/01/21 08:26:21;;;;;;;49.38;23.08;;;;;;;-7.53;53.36;100051.81;5056777;28;20040;-79
2022/01/21 08:28:48;;;;;;;53.92;22.10;;;;;;;-7.46;53.11;100053.59;5056610;28;20037;-79
2022/01/21 08:31:14;;;;;;;66.63;23.95;;;;;;;-7.34;54.03;100043.22;5074618;28;20084;-80
2022/01/21 08:33:39;;;;;;;42.55;21.02;;;;;;;-7.20;53.68;100056.28;5073081;28;20491;-81
2022/01/21 08:36:07;;;;;;;44.53;19.42;;;;;;;-7.24;53.43;100050.19;5071296;28;20119;-81
2022/01/21 08:38:34;;;;;;;49.88;23.05;;;;;;;-7.19;53.93;100043.28;5027029;28;20130;-81
2022/01/21 08:41:01;;;;;;;49.40;22.15;;;;;;;-7.15;53.79;100041.56;5026633;28;20040;-81
2022/01/21 08:43:27;;;;;;;36.92;18.45;;;;;;;-7.28;53.92;100038.06;5092738;28;20046;-82
2022/01/21 08:45:53;;;;;;;55.75;24.40;;;;;;;-7.20;54.02;100035.50;5075729;28;20032;-84
2022/01/21 08:48:19;;;;;;;49.55;20.25;;;;;;;-6.96;54.28;100045.06;5059153;28;20173;-82
2022/01/21 08:50:45;;;;;;;68.57;28.17;;;;;;;-7.01;53.80;100036.41;5092644;28;20496;-82
2022/01/21 08:55:56;;;;;;;37.05;18.95;;;;;;;-6.82;53.96;100022.56;5060270;28;20469;-81
2022/01/21 08:58:22;;;;;;;63.97;22.92;;;;;;;-6.76;53.65;100026.91;5075421;28;20044;-81
2022/01/21 09:00:48;;;;;;;43.92;18.83;;;;;;;-6.84;53.87;100024.31;5075253;28;20043;-81
2022/01/21 09:03:14;;;;;;;40.33;19.67;;;;;;;-6.57;54.30;100028.66;5092611;28;20039;-82
2022/01/21 09:05:41;;;;;;;44.70;17.90;;;;;;;-6.48;53.45;100033.84;5042297;28;20044;-82
2022/01/21 09:08:07;;;;;;;46.75;19.02;;;;;;;-6.38;53.49;100034.72;5025972;28;20036;-82
2022/01/21 09:10:33;;;;;;;40.53;19.40;;;;;;;-6.23;53.30;100033.84;5058820;28;20040;-82
2022/01/21 09:12:59;;;;;;;50.97;20.40;;;;;;;-6.30;52.78;100032.97;5050336;28;20051;-83
2022/01/21 09:15:25;;;;;;;43.95;19.92;;;;;;;-6.38;52.87;100029.53;5066029;28;20075;-81
2022/01/21 09:17:52;;;;;;;43.20;19.98;;;;;;;-6.30;52.76;100040.78;5096004;28;20495;-83
2022/01/21 09:20:18;;;;;;;43.55;20.83;;;;;;;-6.21;52.81;100038.16;5072847;28;20541;-83
2022/01/21 09:22:44;;;;;;;157.55;58.05;;;;;;;-6.38;52.12;100026.91;5047945;28;20415;-80
2022/01/21 09:25:10;;;;;;;181.57;57.78;;;;;;;-6.69;52.36;100024.31;5059542;28;20086;-81
2022/01/21 09:27:36;;;;;;;150.93;56.65;;;;;;;-6.68;52.44;100046.84;5091897;28;20455;-81
2022/01/21 09:30:05;;;;;;;164.20;63.60;;;;;;;-6.69;52.05;100050.31;5074866;28;20040;-81
2022/01/21 09:32:32;;;;;;;170.10;64.93;;;;;;;-7.14;51.74;100044.19;5075685;28;20036;-80
2022/01/21 09:35:00;;;;;;;162.45;58.80;;;;;;;-7.49;51.83;100044.03;5074834;28;20044;-80
2022/01/21 09:37:26;;;;;;;165.85;59.05;;;;;;;-7.84;52.27;100043.88;5058222;28;20097;-79
2022/01/21 09:39:52;;;;;;;158.48;59.63;;;;;;;-8.10;53.04;100044.59;5075143;28;20534;-81
2022/01/21 09:42:18;;;;;;;183.40;61.95;;;;;;;-8.11;53.53;100042.88;5058173;28;20040;-81
2022/01/21 09:44:45;;;;;;;152.18;56.58;;;;;;;-8.15;53.69;100046.31;5080398;28;20474;-81
2022/01/21 09:47:14;;;;;;;162.10;54.78;;;;;;;-7.99;53.96;100041.22;5072644;28;20048;-83
2022/01/21 09:49:41;;;;;;;;;;;;;;;-7.80;53.30;100040.44;5056540;28;20047;-79
2022/01/21 09:52:09;;;;;;;137.75;53.45;;;;;;;-7.74;52.87;100043.09;5088308;28;19966;-81
2022/01/21 09:54:37;;;;;;;168.23;58.88;;;;;;;-7.44;53.24;100046.69;5039455;28;20036;-86
2022/01/21 09:57:05;;;;;;;161.00;58.50;;;;;;;-7.46;52.32;100038.00;5031569;28;20109;-85
2022/01/21 09:59:33;;;;;;;168.27;59.38;;;;;;;-7.43;52.60;100038.03;5047378;28;20565;-85
2022/01/21 10:02:06;;;;;;;167.98;60.08;;;;;;;-7.65;52.58;100037.94;5072786;28;20522;-85
2022/01/21 10:04:38;;;;;;;166.73;57.95;;;;;;;-7.17;52.82;100049.38;5066796;28;20047;-84
2022/01/21 10:07:04;;;;;;;163.63;56.80;;;;;;;-6.87;52.30;100045.09;5056016;28;20056;-83
2022/01/21 10:09:31;;;;;;;157.20;61.05;;;;;;;-6.80;51.64;100041.66;5072668;28;20058;-83
2022/01/21 10:11:58;;;;;;;156.88;57.25;;;;;;;-6.87;51.31;100050.28;5038413;28;20070;-80
2022/01/21 10:14:26;;;;;;;174.65;59.88;;;;;;;-6.95;51.45;100039.03;5072672;28;20415;-79
2022/01/21 10:16:53;;;;;;;173.13;57.08;;;;;;;-6.89;51.62;100049.41;5071550;28;20151;-80
2022/01/21 10:19:23;;;;;;;141.40;56.53;;;;;;;-6.72;51.20;100039.91;5071642;28;20543;-82
2022/01/21 10:22:04;;;;;;;156.63;52.55;;;;;;;-7.17;50.46;100036.38;5039052;28;20044;-85
2022/01/21 10:24:31;;;;;;;146.88;55.67;;;;;;;-7.59;51.33;100047.47;5055410;28;20044;-81
2022/01/21 10:27:04;;;;;;;141.75;54.53;;;;;;;-7.63;51.70;100056.97;5039049;28;20044;-81
2022/01/21 10:30:24;;;;;;;120.25;46.75;;;;;;;-7.99;51.96;100044.66;5050565;28;20136;-81
2022/01/21 10:32:51;;;;;;;137.45;50.25;;;;;;;-7.94;51.90;100055.94;5054741;28;20032;-81
2022/01/21 10:35:31;;;;;;;152.80;58.25;;;;;;;-8.13;51.72;100060.13;5021929;28;20051;-81
2022/01/21 10:38:27;;;;;;;134.38;54.03;;;;;;;-8.18;51.64;100067.03;5055496;28;20453;-83
2022/01/21 10:41:05;;;;;;;142.52;49.97;;;;;;;-8.48;51.62;100062.50;5071455;28;20047;-80
2022/01/21 10:43:31;;;;;;;146.65;57.15;;;;;;;-8.63;52.07;100062.38;5071685;28;20082;-81
2022/01/21 10:45:59;;;;;;;145.07;58.10;;;;;;;-8.43;52.49;100065.13;5054563;28;20043;-80
2022/01/21 10:48:28;;;;;;;158.10;62.70;;;;;;;-8.52;52.47;100067.66;5087890;28;20045;-80
2022/01/21 10:51:16;;;;;;;164.15;60.95;;;;;;;-8.00;52.21;100071.47;5038258;28;20484;-81
2022/01/21 10:53:46;;;;;;;160.67;62.17;;;;;;;-7.82;51.63;100061.22;5071197;28;20049;-82
2022/01/21 10:56:15;;;;;;;;;;;;;;;-7.57;51.63;100076.91;5039714;28;20824;-80
2022/01/21 10:58:42;;;;;;;;;;;;;;;-7.45;50.73;100073.50;5038768;28;19916;-80
2022/01/21 11:01:16;;;;;;;139.63;55.42;;;;;;;-7.55;51.42;100075.19;5054838;28;19985;-83
2022/01/21 11:04:12;;;;;;;145.23;56.42;;;;;;;-7.75;51.06;100085.44;5072509;28;20186;-81
2022/01/21 11:06:51;;;;;;;152.30;57.65;;;;;;;-8.17;51.23;100083.44;5053382;28;20052;-82
2022/01/21 11:09:25;;;;;;;132.98;52.85;;;;;;;-8.78;51.84;100083.84;5054808;28;20087;-80
2022/01/21 11:12:11;;;;;;;156.18;62.03;;;;;;;-9.13;52.86;100105.06;5074966;28;20119;-82
2022/01/21 11:15:01;;;;;;;186.00;65.63;;;;;;;-9.25;53.39;100101.44;5058282;28;20579;-80
2022/01/21 11:17:29;;;;;;;194.25;67.97;;;;;;;-9.30;53.41;100098.81;5058658;28;20496;-80
2022/01/21 11:20:18;;;;;;;191.13;68.63;;;;;;;-9.35;53.56;100098.75;5074822;28;20094;-82
2022/01/21 11:23:00;;;;;;;209.75;68.72;;;;;;;-9.51;53.50;100106.28;5028219;28;20052;-80
2022/01/21 11:25:46;;;;;;;192.00;67.13;;;;;;;-9.48;53.43;100116.69;5042053;28;20062;-81
2022/01/21 11:28:16;;;;;;;174.23;63.13;;;;;;;-9.63;53.28;100107.00;5041108;28;20044;-80
2022/01/21 11:30:42;;;;;;;177.85;59.53;;;;;;;-9.56;53.77;100107.09;5091723;28;20052;-81
2022/01/21 11:33:09;;;;;;;191.50;62.75;;;;;;;-9.66;53.27;100105.28;5075928;28;20127;-80
2022/01/21 11:35:35;;;;;;;174.82;59.63;;;;;;;-9.89;53.57;100094.59;5058338;28;20071;-82
2022/01/21 11:38:04;;;;;;;193.02;66.82;;;;;;;-9.95;54.16;100101.41;5075505;28;20101;-80
2022/01/21 11:40:30;;;;;;;203.43;70.00;;;;;;;-10.29;54.14;100114.72;5091189;28;20056;-80
2022/01/21 11:42:56;;;;;;;188.35;63.22;;;;;;;-10.33;54.61;100102.59;5041050;28;20048;-81
2022/01/21 11:50:42;;;;;;;200.95;68.63;;;;;;;-10.47;55.46;100110.94;5061515;28;20600;-80
2022/01/21 11:53:08;;;;;;;193.43;67.28;;;;;;;-10.59;55.42;100120.22;5092721;28;20040;-81
2022/01/21 11:55:39;;;;;;;186.93;65.97;;;;;;;-10.59;55.97;100129.69;5076406;28;20047;-82
2022/01/21 11:58:24;;;;;;;190.90;67.22;;;;;;;-10.47;56.58;100134.22;5043535;28;20040;-81
2022/01/21 12:00:52;;;;;;;196.32;67.55;;;;;;;-10.58;55.92;100114.22;5025214;28;20044;-80
2022/01/21 12:03:23;;;;;;;203.13;63.78;;;;;;;-10.62;56.62;100116.72;5074001;28;20491;-82